Aviation Digital Data Service (ADDS)

Output produced by METARs form (1354 UTC 13 December 2019)
found at http://www.aviationweather.gov/metar/data/
 
Forecast for: VABB (BOMBAY/SANTACRUZ, IN)
Text: TAF VABB 131100Z 1312/1321 32005KT 4000 FU HZ FEW020 SCT100
Forecast period: 1200 to 1800 UTC 13 December 2019
Forecast type: FROM: standard forecast or significant change
Winds: from the NW (320 degrees) at 6 MPH (5 knots; 2.6 m/s)
Visibility: 2.49 miles (4.01 km)
Ceiling: at least 12,000 feet AGL
Clouds: few clouds at 2000 feet AGL
scattered clouds at 10000 feet AGL
Weather: FU HZ  (smoke, haze)
Text: BECMG 1318/1320 05004KT 3000 HZ FEW100
Forecast period: 1800 to 2100 UTC 13 December 2019
Forecast type: BECOMING: Conditions expected to become as follows by 2000 UTC 13 December 2019
Winds: from the NE (50 degrees) at 5 MPH (4 knots; 2.1 m/s)
Visibility: 1.86 miles (2.99 km)
Ceiling: at least 12,000 feet AGL
Clouds: few clouds at 10000 feet AGL
Weather: HZ  (haze)